Time,TemperatureF,DewpointF,PressureIn,WindDirection,WindDirectionDegrees,WindSpeedMPH,WindSpeedGustMPH,Humidity,HourlyPrecipIn,Conditions,Clouds,dailyrainin,SoftwareType,DateUTC
2013-01-30 13:25:00,58.0,50.5,29.36,ESE,106,8.0,17.0,76,0.00,,,0.54,Wunderground v.1.13,2013-01-30 18:25:00,
2013-01-30 13:30:00,58.0,50.5,29.36,ENE,62,8.0,17.0,76,0.00,,,0.54,Wunderground v.1.13,2013-01-30 18:30:00,
2013-01-30 13:35:00,58.0,50.1,29.37,East,79,9.0,17.0,75,0.00,,,0.54,Wunderground v.1.13,2013-01-30 18:35:00,
2013-01-30 13:40:00,58.1,50.2,29.37,NNE,17,8.0,17.0,75,0.00,,,0.54,Wunderground v.1.13,2013-01-30 18:40:00,
2013-01-30 13:45:00,58.3,50.0,29.37,East,92,8.0,17.0,74,0.00,,,0.54,Wunderground v.1.13,2013-01-30 18:45:00,
2013-01-30 13:50:00,58.4,50.1,29.36,East,82,7.0,7.0,74,0.00,,,0.54,Wunderground v.1.13,2013-01-30 18:50:00,
2013-01-30 13:55:00,58.3,49.7,29.36,ENE,76,7.0,17.0,73,0.00,,,0.54,Wunderground v.1.13,2013-01-30 18:55:00,
2013-01-30 14:00:00,58.6,49.6,29.36,ENE,65,8.0,8.0,72,0.00,,,0.54,Wunderground v.1.13,2013-01-30 19:00:00,
2013-01-30 14:05:00,58.6,49.6,29.34,East,96,7.0,17.0,72,0.00,,,0.54,Wunderground v.1.13,2013-01-30 19:05:00,
2013-01-30 14:10:00,58.6,49.6,29.34,East,89,7.0,17.0,72,0.00,,,0.54,Wunderground v.1.13,2013-01-30 19:10:00,
2013-01-30 14:15:00,58.4,49.4,29.34,ESE,107,6.0,6.0,72,0.00,,,0.54,Wunderground v.1.13,2013-01-30 19:15:00,
2013-01-30 14:25:00,58.1,49.1,29.31,ESE,109,6.0,17.0,72,0.00,,,0.54,Wunderground v.1.13,2013-01-30 19:25:00,
2013-01-30 14:30:00,58.1,48.7,29.31,ESE,123,7.0,17.0,71,0.00,,,0.54,Wunderground v.1.13,2013-01-30 19:30:00,
2013-01-30 14:35:00,58.1,49.1,29.32,ESE,102,9.0,9.0,72,0.00,,,0.54,Wunderground v.1.13,2013-01-30 19:35:00,
2013-01-30 14:40:00,58.1,48.7,29.32,ENE,78,8.0,8.0,71,0.00,,,0.54,Wunderground v.1.13,2013-01-30 19:40:00,
2013-01-30 14:45:00,58.1,48.7,29.32,ENE,72,7.0,17.0,71,0.00,,,0.54,Wunderground v.1.13,2013-01-30 19:45:00,
2013-01-30 14:55:00,58.0,47.9,29.34,ENE,78,9.0,17.0,69,0.00,,,0.54,Wunderground v.1.13,2013-01-30 19:55:00,
2013-01-30 15:00:00,58.0,47.5,29.34,ESE,103,10.0,10.0,68,0.00,,,0.54,Wunderground v.1.13,2013-01-30 20:00:00,
2013-01-30 15:05:00,58.0,47.1,29.34,ESE,102,10.0,17.0,67,0.00,,,0.54,Wunderground v.1.13,2013-01-30 20:05:00,
2013-01-30 15:10:00,58.0,47.1,29.34,NE,48,10.0,10.0,67,0.00,,,0.54,Wunderground v.1.13,2013-01-30 20:10:00,
2013-01-30 15:15:00,58.1,47.2,29.34,ESE,114,9.0,9.0,67,0.00,,,0.54,Wunderground v.1.13,2013-01-30 20:15:00,
2013-01-30 15:25:00,57.8,47.3,29.34,ESE,109,7.0,17.0,68,0.00,,,0.54,Wunderground v.1.13,2013-01-30 20:25:00,
2013-01-30 15:30:00,57.6,47.5,29.34,ESE,103,8.0,17.0,69,0.00,,,0.54,Wunderground v.1.13,2013-01-30 20:30:00,
2013-01-30 15:35:00,57.6,47.5,29.32,ESE,109,8.0,8.0,69,0.00,,,0.54,Wunderground v.1.13,2013-01-30 20:35:00,
2013-01-30 15:40:00,57.6,47.5,29.32,ESE,107,7.0,17.0,69,0.00,,,0.54,Wunderground v.1.13,2013-01-30 20:40:00,
2013-01-30 15:45:00,57.5,47.4,29.32,East,93,8.0,8.0,69,0.00,,,0.54,Wunderground v.1.13,2013-01-30 20:45:00,
2013-01-30 15:50:00,57.3,47.2,29.32,ESE,103,8.0,17.0,69,0.00,,,0.54,Wunderground v.1.13,2013-01-30 20:50:00,
2013-01-30 16:00:00,57.3,47.6,29.32,ENE,68,7.0,17.0,70,0.00,,,0.54,Wunderground v.1.13,2013-01-30 21:00:00,
2013-01-30 16:05:00,57.2,47.5,29.30,ENE,66,6.0,17.0,70,0.00,,,0.54,Wunderground v.1.13,2013-01-30 21:05:00,
2013-01-30 16:10:00,57.2,47.5,29.30,East,92,6.0,17.0,70,0.00,,,0.54,Wunderground v.1.13,2013-01-30 21:10:00,
2013-01-30 16:15:00,57.0,47.3,29.30,NE,51,7.0,17.0,70,0.00,,,0.54,Wunderground v.1.13,2013-01-30 21:15:00,
2013-01-30 16:20:00,57.0,47.3,29.31,East,89,9.0,9.0,70,0.00,,,0.54,Wunderground v.1.13,2013-01-30 21:20:00,
2013-01-30 16:30:00,57.0,47.3,29.31,NE,37,8.0,17.0,70,0.00,,,0.54,Wunderground v.1.13,2013-01-30 21:30:00,
2013-01-30 16:35:00,57.0,46.9,29.31,East,99,8.0,8.0,69,0.00,,,0.54,Wunderground v.1.13,2013-01-30 21:35:00,
2013-01-30 16:40:00,57.0,46.9,29.31,East,97,7.0,7.0,69,0.00,,,0.54,Wunderground v.1.13,2013-01-30 21:40:00,
2013-01-30 16:50:00,56.9,46.8,29.31,NE,37,8.0,8.0,69,0.00,,,0.54,Wunderground v.1.13,2013-01-30 21:50:00,
2013-01-30 17:00:00,56.7,46.6,29.31,East,100,8.0,17.0,69,0.00,,,0.54,Wunderground v.1.13,2013-01-30 22:00:00,
2013-01-30 17:05:00,56.7,46.6,29.30,East,89,8.0,8.0,69,0.00,,,0.54,Wunderground v.1.13,2013-01-30 22:05:00,
2013-01-30 17:10:00,56.6,46.5,29.30,ENE,76,8.0,17.0,69,0.00,,,0.54,Wunderground v.1.13,2013-01-30 22:10:00,
2013-01-30 17:15:00,56.6,46.2,29.30,ENE,72,8.0,17.0,68,0.00,,,0.54,Wunderground v.1.13,2013-01-30 22:15:00,
2013-01-30 17:20:00,56.6,46.2,29.30,ENE,65,9.0,9.0,68,0.00,,,0.54,Wunderground v.1.13,2013-01-30 22:20:00,
2013-01-30 17:25:00,56.5,46.1,29.30,East,90,9.0,17.0,68,0.00,,,0.54,Wunderground v.1.13,2013-01-30 22:25:00,
2013-01-30 17:35:00,56.5,46.1,29.29,East,95,8.0,17.0,68,0.00,,,0.54,Wunderground v.1.13,2013-01-30 22:35:00,
2013-01-30 17:40:00,56.3,45.5,29.29,ENE,76,9.0,17.0,67,0.00,,,0.54,Wunderground v.1.13,2013-01-30 22:40:00,
2013-01-30 17:45:00,56.3,45.5,29.29,East,82,9.0,9.0,67,0.00,,,0.54,Wunderground v.1.13,2013-01-30 22:45:00,
2013-01-30 17:50:00,56.2,45.4,29.29,ENE,62,8.0,17.0,67,0.00,,,0.54,Wunderground v.1.13,2013-01-30 22:50:00,
2013-01-30 17:55:00,56.2,45.4,29.29,NE,49,10.0,17.0,67,0.00,,,0.54,Wunderground v.1.13,2013-01-30 22:55:00,
2013-01-30 18:05:00,56.0,45.2,29.28,East,79,9.0,9.0,67,0.00,,,0.54,Wunderground v.1.13,2013-01-30 23:05:00,
2013-01-30 18:10:00,55.9,45.1,29.28,ENE,58,10.0,17.0,67,0.00,,,0.54,Wunderground v.1.13,2013-01-30 23:10:00,
2013-01-30 18:15:00,55.9,45.1,29.28,East,89,11.0,11.0,67,0.00,,,0.54,Wunderground v.1.13,2013-01-30 23:15:00,
2013-01-30 18:20:00,55.9,45.1,29.28,East,90,10.0,10.0,67,0.00,,,0.54,Wunderground v.1.13,2013-01-30 23:20:00,
2013-01-30 18:25:00,55.9,45.1,29.28,East,92,9.0,18.0,67,0.00,,,0.54,Wunderground v.1.13,2013-01-30 23:25:00,
2013-01-30 18:30:00,55.7,44.9,29.28,East,93,10.0,21.0,67,0.00,,,0.54,Wunderground v.1.13,2013-01-30 23:30:00,
2013-01-30 18:35:00,55.4,45.0,29.29,ESE,116,11.0,17.0,68,0.00,,,0.54,Wunderground v.1.13,2013-01-30 23:35:00,
2013-01-30 18:40:00,55.1,45.1,29.29,SE,140,10.0,17.0,69,0.00,,,0.55,Wunderground v.1.13,2013-01-30 23:40:00,
2013-01-30 18:45:00,53.2,45.5,29.29,SE,126,9.0,17.0,75,0.30,,,0.59,Wunderground v.1.13,2013-01-30 23:45:00,
2013-01-30 18:50:00,50.7,43.1,29.33,SSW,196,8.0,8.0,75,0.13,,,0.60,Wunderground v.1.13,2013-01-30 23:50:00,
2013-01-30 18:55:00,49.2,42.0,29.33,SSE,162,6.0,17.0,76,0.09,,,0.60,Wunderground v.1.13,2013-01-30 23:55:00,
2013-01-30 19:00:00,48.0,41.5,29.33,SE,137,5.0,5.0,78,0.05,,,0.60,Wunderground v.1.13,2013-01-31 00:00:00,
2013-01-30 19:10:00,46.7,40.9,29.35,SE,130,3.0,3.0,80,0.00,,,0.60,Wunderground v.1.13,2013-01-31 00:10:00,
2013-01-30 19:15:00,46.0,40.2,29.35,South,169,3.0,3.0,80,0.00,,,0.60,Wunderground v.1.13,2013-01-31 00:15:00,
2013-01-30 19:20:00,45.1,39.3,29.37,SE,141,4.0,17.0,80,0.00,,,0.60,Wunderground v.1.13,2013-01-31 00:20:00,
2013-01-30 19:25:00,44.1,38.0,29.37,SE,130,6.0,6.0,79,0.00,,,0.60,Wunderground v.1.13,2013-01-31 00:25:00,
2013-01-30 19:30:00,43.6,38.2,29.37,East,96,5.0,17.0,81,0.00,,,0.61,Wunderground v.1.13,2013-01-31 00:30:00,
2013-01-30 19:40:00,43.1,37.7,29.39,SE,131,4.0,4.0,81,0.00,,,0.61,Wunderground v.1.13,2013-01-31 00:40:00,
2013-01-30 19:45:00,42.9,37.2,29.39,SE,128,3.0,3.0,80,0.00,,,0.61,Wunderground v.1.13,2013-01-31 00:45:00,
2013-01-30 19:50:00,42.8,37.4,29.40,South,172,2.0,17.0,81,0.00,,,0.61,Wunderground v.1.13,2013-01-31 00:50:00,
2013-01-30 19:55:00,42.8,37.4,29.40,South,181,1.0,17.0,81,0.00,,,0.61,Wunderground v.1.13,2013-01-31 00:55:00,
2013-01-30 20:00:00,42.8,37.4,29.40,SSE,155,1.0,1.0,81,0.00,,,0.61,Wunderground v.1.13,2013-01-31 01:00:00,
2013-01-30 20:05:00,42.6,36.9,29.41,SSE,157,1.0,17.0,80,0.00,,,0.61,Wunderground v.1.13,2013-01-31 01:05:00,
2013-01-30 20:15:00,42.3,35.9,29.41,SSE,152,2.0,17.0,78,0.00,,,0.61,Wunderground v.1.13,2013-01-31 01:15:00,
2013-01-30 20:20:00,42.2,35.5,29.42,ESE,119,3.0,17.0,77,0.00,,,0.61,Wunderground v.1.13,2013-01-31 01:20:00,
2013-01-30 20:25:00,42.2,35.5,29.42,SSE,164,3.0,3.0,77,0.00,,,0.61,Wunderground v.1.13,2013-01-31 01:25:00,
2013-01-30 20:30:00,42.2,35.8,29.42,SE,140,2.0,17.0,78,0.00,,,0.61,Wunderground v.1.13,2013-01-31 01:30:00,
2013-01-30 20:35:00,42.1,36.1,29.42,SSE,155,3.0,3.0,79,0.00,,,0.61,Wunderground v.1.13,2013-01-31 01:35:00,
2013-01-30 20:40:00,41.6,35.6,29.42,SE,134,4.0,4.0,79,0.00,,,0.61,Wunderground v.1.13,2013-01-31 01:40:00,
2013-01-30 20:45:00,41.2,35.2,29.42,SE,137,5.0,17.0,79,0.00,,,0.61,Wunderground v.1.13,2013-01-31 01:45:00,
2013-01-30 20:50:00,40.9,34.9,29.43,SSE,147,4.0,4.0,79,0.00,,,0.61,Wunderground v.1.13,2013-01-31 01:50:00,
2013-01-30 20:55:00,40.5,33.9,29.43,SSE,147,4.0,17.0,77,0.00,,,0.61,Wunderground v.1.13,2013-01-31 01:55:00,
2013-01-30 21:00:00,40.2,33.2,29.43,ESE,121,5.0,17.0,76,0.00,,,0.61,Wunderground v.1.13,2013-01-31 02:00:00,
2013-01-30 21:05:00,40.1,33.1,29.44,SSE,150,4.0,17.0,76,0.00,,,0.00,Wunderground v.1.13,2013-01-31 02:05:00,
2013-01-30 21:15:00,39.6,32.3,29.44,ESE,116,3.0,17.0,75,0.00,,,0.00,Wunderground v.1.13,2013-01-31 02:15:00,
2013-01-30 21:20:00,39.5,31.6,29.45,East,90,4.0,4.0,73,0.00,,,0.00,Wunderground v.1.13,2013-01-31 02:20:00,
2013-01-30 21:25:00,39.3,31.4,29.45,ESE,119,3.0,17.0,73,0.00,,,0.00,Wunderground v.1.13,2013-01-31 02:25:00,
2013-01-30 21:30:00,39.1,31.2,29.45,SE,130,3.0,3.0,73,0.00,,,0.00,Wunderground v.1.13,2013-01-31 02:30:00,
2013-01-30 21:35:00,38.9,30.6,29.45,SE,144,3.0,3.0,72,0.00,,,0.00,Wunderground v.1.13,2013-01-31 02:35:00,
2013-01-30 21:40:00,38.6,30.0,29.45,SE,124,3.0,17.0,71,0.00,,,0.00,Wunderground v.1.13,2013-01-31 02:40:00,
2013-01-30 21:50:00,38.5,30.6,29.47,SE,144,3.0,3.0,73,0.00,,,0.00,Wunderground v.1.13,2013-01-31 02:50:00,
2013-01-30 21:55:00,38.3,30.7,29.47,SSE,151,2.0,17.0,74,0.00,,,0.00,Wunderground v.1.13,2013-01-31 02:55:00,
2013-01-30 22:00:00,38.0,30.1,29.47,SSE,150,3.0,17.0,73,0.00,,,0.00,Wunderground v.1.13,2013-01-31 03:00:00,
2013-01-30 22:05:00,37.8,30.3,29.50,SE,136,4.0,4.0,74,0.00,,,0.00,Wunderground v.1.13,2013-01-31 03:05:00,
2013-01-30 22:10:00,37.6,30.1,29.50,SSE,150,3.0,3.0,74,0.00,,,0.00,Wunderground v.1.13,2013-01-31 03:10:00,
2013-01-30 22:20:00,37.0,28.8,29.51,SSE,168,6.0,6.0,72,0.00,,,0.00,Wunderground v.1.13,2013-01-31 03:20:00,
2013-01-30 22:25:00,36.8,28.6,29.51,SE,126,6.0,6.0,72,0.00,,,0.00,Wunderground v.1.13,2013-01-31 03:25:00,
2013-01-30 22:30:00,36.5,27.3,29.51,SSE,147,5.0,17.0,69,0.00,,,0.00,Wunderground v.1.13,2013-01-31 03:30:00,
2013-01-30 22:35:00,36.3,26.7,29.52,ESE,119,6.0,17.0,68,0.00,,,0.00,Wunderground v.1.13,2013-01-31 03:35:00,
2013-01-30 22:40:00,36.2,26.6,29.52,SSW,195,6.0,17.0,68,0.00,,,0.00,Wunderground v.1.13,2013-01-31 03:40:00,
2013-01-30 22:50:00,36.0,27.2,29.54,ESE,114,3.0,17.0,70,0.00,,,0.00,Wunderground v.1.13,2013-01-31 03:50:00,
2013-01-30 22:55:00,35.8,25.5,29.54,SSE,160,5.0,17.0,66,0.00,,,0.00,Wunderground v.1.13,2013-01-31 03:55:00,
2013-01-30 23:00:00,35.6,25.0,29.54,SSE,165,5.0,5.0,65,0.00,,,0.00,Wunderground v.1.13,2013-01-31 04:00:00,
2013-01-30 23:05:00,35.6,25.7,29.56,SE,136,4.0,4.0,67,0.00,,,0.00,Wunderground v.1.13,2013-01-31 04:05:00,
2013-01-30 23:10:00,35.5,24.9,29.56,SSE,155,4.0,17.0,65,0.00,,,0.00,Wunderground v.1.13,2013-01-31 04:10:00,
2013-01-30 23:15:00,35.2,23.9,29.56,SSE,151,6.0,6.0,63,0.00,,,0.00,Wunderground v.1.13,2013-01-31 04:15:00,
2013-01-30 23:25:00,35.0,24.4,29.57,South,181,5.0,17.0,65,0.00,,,0.00,Wunderground v.1.13,2013-01-31 04:25:00,
2013-01-30 23:30:00,34.9,23.9,29.57,ESE,117,5.0,5.0,64,0.00,,,0.00,Wunderground v.1.13,2013-01-31 04:30:00,
2013-01-30 23:35:00,34.9,23.9,29.57,SE,141,4.0,17.0,64,0.00,,,0.00,Wunderground v.1.13,2013-01-31 04:35:00,
2013-01-30 23:40:00,34.9,23.6,29.57,ESE,103,4.0,17.0,63,0.00,,,0.00,Wunderground v.1.13,2013-01-31 04:40:00,
2013-01-30 23:45:00,34.9,23.6,29.57,SE,124,4.0,17.0,63,0.00,,,0.00,Wunderground v.1.13,2013-01-31 04:45:00,
2013-01-30 23:55:00,34.7,23.0,29.58,ESE,114,6.0,6.0,62,0.00,,,0.00,Wunderground v.1.13,2013-01-31 04:55:00,